sensor_id;sensor_type;location;lat;lon;timestamp;temperature;humidity
55634;DHT22;41504;53.162;6.788;2023-05-07T00:01:28;12.40;94.80
55634;DHT22;41504;53.162;6.788;2023-05-07T00:03:54;12.40;94.80
55634;DHT22;41504;53.162;6.788;2023-05-07T00:06:19;12.40;94.80
55634;DHT22;41504;53.162;6.788;2023-05-07T00:08:45;12.40;94.80
55634;DHT22;41504;53.162;6.788;2023-05-07T00:11:11;12.40;94.80
55634;DHT22;41504;53.162;6.788;2023-05-07T00:13:36;12.30;94.80
55634;DHT22;41504;53.162;6.788;2023-05-07T00:16:03;12.30;95.10
55634;DHT22;41504;53.162;6.788;2023-05-07T00:18:29;12.30;94.90
55634;DHT22;41504;53.162;6.788;2023-05-07T00:20:55;12.30;94.90
55634;DHT22;41504;53.162;6.788;2023-05-07T00:23:22;12.30;94.90
55634;DHT22;41504;53.162;6.788;2023-05-07T00:25:47;12.20;94.80
55634;DHT22;41504;53.162;6.788;2023-05-07T00:28:13;12.20;94.80
55634;DHT22;41504;53.162;6.788;2023-05-07T00:30:39;12.20;94.90
55634;DHT22;41504;53.162;6.788;2023-05-07T00:33:04;12.20;94.90
55634;DHT22;41504;53.162;6.788;2023-05-07T00:35:30;12.20;94.90
55634;DHT22;41504;53.162;6.788;2023-05-07T00:37:57;12.10;94.90
55634;DHT22;41504;53.162;6.788;2023-05-07T00:40:23;12.10;94.90
55634;DHT22;41504;53.162;6.788;2023-05-07T00:42:49;12.10;94.90
55634;DHT22;41504;53.162;6.788;2023-05-07T00:45:15;12.10;94.90
55634;DHT22;41504;53.162;6.788;2023-05-07T00:47:43;12.10;95.00
55634;DHT22;41504;53.162;6.788;2023-05-07T00:50:09;12.10;95.00
55634;DHT22;41504;53.162;6.788;2023-05-07T00:52:37;12.10;95.00
55634;DHT22;41504;53.162;6.788;2023-05-07T00:55:05;12.10;95.00
55634;DHT22;41504;53.162;6.788;2023-05-07T00:57:41;12.00;95.00
55634;DHT22;41504;53.162;6.788;2023-05-07T01:00:08;12.00;95.00
55634;DHT22;41504;53.162;6.788;2023-05-07T01:02:39;12.00;95.00
55634;DHT22;41504;53.162;6.788;2023-05-07T01:05:06;12.00;95.00
55634;DHT22;41504;53.162;6.788;2023-05-07T01:07:33;12.00;95.00
55634;DHT22;41504;53.162;6.788;2023-05-07T01:10:00;12.00;95.00
55634;DHT22;41504;53.162;6.788;2023-05-07T01:12:28;12.00;95.00
55634;DHT22;41504;53.162;6.788;2023-05-07T01:14:55;12.00;95.00
55634;DHT22;41504;53.162;6.788;2023-05-07T01:17:21;12.00;95.00
55634;DHT22;41504;53.162;6.788;2023-05-07T01:19:46;12.00;94.90
55634;DHT22;41504;53.162;6.788;2023-05-07T01:22:15;12.00;95.00
55634;DHT22;41504;53.162;6.788;2023-05-07T01:24:42;12.00;95.00
55634;DHT22;41504;53.162;6.788;2023-05-07T01:27:08;12.00;95.10
55634;DHT22;41504;53.162;6.788;2023-05-07T01:29:34;11.90;95.10
55634;DHT22;41504;53.162;6.788;2023-05-07T01:32:00;11.90;95.10
55634;DHT22;41504;53.162;6.788;2023-05-07T01:34:32;11.90;95.10
55634;DHT22;41504;53.162;6.788;2023-05-07T01:36:58;11.90;95.20
55634;DHT22;41504;53.162;6.788;2023-05-07T01:39:25;11.90;95.20
55634;DHT22;41504;53.162;6.788;2023-05-07T01:41:54;11.90;95.20
55634;DHT22;41504;53.162;6.788;2023-05-07T01:44:21;11.90;95.30
55634;DHT22;41504;53.162;6.788;2023-05-07T01:46:47;11.90;95.30
55634;DHT22;41504;53.162;6.788;2023-05-07T01:49:14;11.90;95.30
55634;DHT22;41504;53.162;6.788;2023-05-07T01:51:41;11.80;95.30
55634;DHT22;41504;53.162;6.788;2023-05-07T01:54:07;11.90;95.30
55634;DHT22;41504;53.162;6.788;2023-05-07T01:56:33;11.80;95.30
55634;DHT22;41504;53.162;6.788;2023-05-07T01:58:59;11.80;95.30
55634;DHT22;41504;53.162;6.788;2023-05-07T02:01:25;11.80;95.30
55634;DHT22;41504;53.162;6.788;2023-05-07T02:03:51;11.80;95.30
55634;DHT22;41504;53.162;6.788;2023-05-07T02:06:17;11.80;95.40
55634;DHT22;41504;53.162;6.788;2023-05-07T02:08:43;11.80;95.50
55634;DHT22;41504;53.162;6.788;2023-05-07T02:11:08;11.80;95.40
55634;DHT22;41504;53.162;6.788;2023-05-07T02:13:34;11.80;95.50
55634;DHT22;41504;53.162;6.788;2023-05-07T02:16:07;11.70;95.40
55634;DHT22;41504;53.162;6.788;2023-05-07T02:18:34;11.70;95.40
55634;DHT22;41504;53.162;6.788;2023-05-07T02:21:01;11.70;95.50
55634;DHT22;41504;53.162;6.788;2023-05-07T02:23:27;11.70;95.50
55634;DHT22;41504;53.162;6.788;2023-05-07T02:25:56;11.70;95.60
55634;DHT22;41504;53.162;6.788;2023-05-07T02:28:22;11.70;95.60
55634;DHT22;41504;53.162;6.788;2023-05-07T02:30:52;11.70;95.60
55634;DHT22;41504;53.162;6.788;2023-05-07T02:33:18;11.70;95.60
55634;DHT22;41504;53.162;6.788;2023-05-07T02:35:47;11.70;95.50
55634;DHT22;41504;53.162;6.788;2023-05-07T02:38:16;11.70;95.50
55634;DHT22;41504;53.162;6.788;2023-05-07T02:40:42;11.70;95.50
55634;DHT22;41504;53.162;6.788;2023-05-07T02:43:08;11.70;95.50
55634;DHT22;41504;53.162;6.788;2023-05-07T02:45:37;11.70;95.50
55634;DHT22;41504;53.162;6.788;2023-05-07T02:48:06;11.70;95.50
55634;DHT22;41504;53.162;6.788;2023-05-07T02:50:35;11.60;95.50
55634;DHT22;41504;53.162;6.788;2023-05-07T02:53:01;11.60;95.50
55634;DHT22;41504;53.162;6.788;2023-05-07T02:55:32;11.60;95.60
55634;DHT22;41504;53.162;6.788;2023-05-07T02:57:58;11.50;95.50
55634;DHT22;41504;53.162;6.788;2023-05-07T03:00:24;11.60;95.60
55634;DHT22;41504;53.162;6.788;2023-05-07T03:02:53;11.60;95.60
55634;DHT22;41504;53.162;6.788;2023-05-07T03:05:19;11.60;95.60
55634;DHT22;41504;53.162;6.788;2023-05-07T03:07:45;11.60;95.50
55634;DHT22;41504;53.162;6.788;2023-05-07T03:10:11;11.60;95.50
55634;DHT22;41504;53.162;6.788;2023-05-07T03:12:37;11.60;95.50
55634;DHT22;41504;53.162;6.788;2023-05-07T03:15:04;11.60;95.50
55634;DHT22;41504;53.162;6.788;2023-05-07T03:17:30;11.60;95.50
55634;DHT22;41504;53.162;6.788;2023-05-07T03:19:58;11.50;95.50
55634;DHT22;41504;53.162;6.788;2023-05-07T03:22:25;11.50;95.50
55634;DHT22;41504;53.162;6.788;2023-05-07T03:24:51;11.50;95.40
55634;DHT22;41504;53.162;6.788;2023-05-07T03:27:17;11.50;95.40
55634;DHT22;41504;53.162;6.788;2023-05-07T03:29:43;11.40;95.50
55634;DHT22;41504;53.162;6.788;2023-05-07T03:32:09;11.40;95.60
55634;DHT22;41504;53.162;6.788;2023-05-07T03:34:36;11.40;95.50
55634;DHT22;41504;53.162;6.788;2023-05-07T03:37:09;11.40;95.50
55634;DHT22;41504;53.162;6.788;2023-05-07T03:39:36;11.40;95.60
55634;DHT22;41504;53.162;6.788;2023-05-07T03:42:02;11.40;95.60
55634;DHT22;41504;53.162;6.788;2023-05-07T03:44:31;11.40;95.60
55634;DHT22;41504;53.162;6.788;2023-05-07T03:46:59;11.40;95.60
55634;DHT22;41504;53.162;6.788;2023-05-07T03:49:25;11.40;95.60
55634;DHT22;41504;53.162;6.788;2023-05-07T03:51:54;11.40;95.60
55634;DHT22;41504;53.162;6.788;2023-05-07T03:54:20;11.40;95.60
55634;DHT22;41504;53.162;6.788;2023-05-07T03:56:46;11.40;95.70
55634;DHT22;41504;53.162;6.788;2023-05-07T03:59:12;11.30;95.60
55634;DHT22;41504;53.162;6.788;2023-05-07T04:01:38;11.30;95.60
55634;DHT22;41504;53.162;6.788;2023-05-07T04:04:33;11.30;95.60
55634;DHT22;41504;53.162;6.788;2023-05-07T04:06:59;11.30;95.60
55634;DHT22;41504;53.162;6.788;2023-05-07T04:09:34;11.30;95.60
55634;DHT22;41504;53.162;6.788;2023-05-07T04:12:00;11.20;95.60
55634;DHT22;41504;53.162;6.788;2023-05-07T04:14:30;11.20;95.60
55634;DHT22;41504;53.162;6.788;2023-05-07T04:16:59;11.20;95.60
55634;DHT22;41504;53.162;6.788;2023-05-07T04:19:28;11.20;95.60
55634;DHT22;41504;53.162;6.788;2023-05-07T04:21:57;11.20;95.60
55634;DHT22;41504;53.162;6.788;2023-05-07T04:24:23;11.20;95.50
55634;DHT22;41504;53.162;6.788;2023-05-07T04:26:49;11.20;95.50
55634;DHT22;41504;53.162;6.788;2023-05-07T04:29:21;11.20;95.50
55634;DHT22;41504;53.162;6.788;2023-05-07T04:31:47;11.20;95.60
55634;DHT22;41504;53.162;6.788;2023-05-07T04:34:15;11.10;95.60
55634;DHT22;41504;53.162;6.788;2023-05-07T04:36:42;11.10;95.60
55634;DHT22;41504;53.162;6.788;2023-05-07T04:39:08;11.10;95.60
55634;DHT22;41504;53.162;6.788;2023-05-07T04:41:41;11.10;95.60
55634;DHT22;41504;53.162;6.788;2023-05-07T04:44:10;11.10;95.60
55634;DHT22;41504;53.162;6.788;2023-05-07T04:46:36;11.20;95.60
55634;DHT22;41504;53.162;6.788;2023-05-07T04:49:02;11.30;95.70
55634;DHT22;41504;53.162;6.788;2023-05-07T04:51:38;11.10;95.60
55634;DHT22;41504;53.162;6.788;2023-05-07T04:54:06;11.10;95.70
55634;DHT22;41504;53.162;6.788;2023-05-07T04:56:32;11.10;95.70
55634;DHT22;41504;53.162;6.788;2023-05-07T04:58:58;11.10;95.70
55634;DHT22;41504;53.162;6.788;2023-05-07T05:01:25;11.10;95.70
55634;DHT22;41504;53.162;6.788;2023-05-07T05:03:51;11.00;95.60
55634;DHT22;41504;53.162;6.788;2023-05-07T05:06:17;11.10;95.70
55634;DHT22;41504;53.162;6.788;2023-05-07T05:08:42;11.10;95.60
55634;DHT22;41504;53.162;6.788;2023-05-07T05:11:08;11.10;95.60
55634;DHT22;41504;53.162;6.788;2023-05-07T05:13:35;11.10;95.60
55634;DHT22;41504;53.162;6.788;2023-05-07T05:16:01;11.10;95.50
55634;DHT22;41504;53.162;6.788;2023-05-07T05:18:27;11.10;95.60
55634;DHT22;41504;53.162;6.788;2023-05-07T05:20:53;11.10;95.60
55634;DHT22;41504;53.162;6.788;2023-05-07T05:23:19;11.20;95.60
55634;DHT22;41504;53.162;6.788;2023-05-07T05:25:46;11.20;95.60
55634;DHT22;41504;53.162;6.788;2023-05-07T05:28:14;11.20;95.50
55634;DHT22;41504;53.162;6.788;2023-05-07T05:30:40;11.20;95.50
55634;DHT22;41504;53.162;6.788;2023-05-07T05:33:09;11.20;95.50
55634;DHT22;41504;53.162;6.788;2023-05-07T05:35:34;11.20;95.40
55634;DHT22;41504;53.162;6.788;2023-05-07T05:38:05;11.20;95.60
55634;DHT22;41504;53.162;6.788;2023-05-07T05:40:31;11.10;95.40
55634;DHT22;41504;53.162;6.788;2023-05-07T05:42:59;11.20;95.50
55634;DHT22;41504;53.162;6.788;2023-05-07T05:45:25;11.10;95.40
55634;DHT22;41504;53.162;6.788;2023-05-07T05:47:51;11.20;95.50
55634;DHT22;41504;53.162;6.788;2023-05-07T05:50:18;11.20;95.40
55634;DHT22;41504;53.162;6.788;2023-05-07T05:52:44;11.20;95.40
55634;DHT22;41504;53.162;6.788;2023-05-07T05:55:10;11.20;95.40
55634;DHT22;41504;53.162;6.788;2023-05-07T05:57:36;11.20;95.40
55634;DHT22;41504;53.162;6.788;2023-05-07T06:00:02;11.20;95.40
55634;DHT22;41504;53.162;6.788;2023-05-07T06:02:28;11.20;95.30
55634;DHT22;41504;53.162;6.788;2023-05-07T06:04:54;11.20;95.40
55634;DHT22;41504;53.162;6.788;2023-05-07T06:07:23;11.20;95.40
55634;DHT22;41504;53.162;6.788;2023-05-07T06:09:49;11.20;95.40
55634;DHT22;41504;53.162;6.788;2023-05-07T06:12:18;11.20;95.30
55634;DHT22;41504;53.162;6.788;2023-05-07T06:14:47;11.30;95.30
55634;DHT22;41504;53.162;6.788;2023-05-07T06:17:13;11.30;95.20
55634;DHT22;41504;53.162;6.788;2023-05-07T06:19:44;11.20;95.20
55634;DHT22;41504;53.162;6.788;2023-05-07T06:22:21;11.30;95.30
55634;DHT22;41504;53.162;6.788;2023-05-07T06:24:47;11.30;95.20
55634;DHT22;41504;53.162;6.788;2023-05-07T06:27:18;11.30;95.20
55634;DHT22;41504;53.162;6.788;2023-05-07T06:29:48;11.20;95.40
55634;DHT22;41504;53.162;6.788;2023-05-07T06:32:14;11.20;95.10
55634;DHT22;41504;53.162;6.788;2023-05-07T06:34:40;11.20;95.10
55634;DHT22;41504;53.162;6.788;2023-05-07T06:37:12;11.20;95.10
55634;DHT22;41504;53.162;6.788;2023-05-07T06:39:38;11.20;95.10
55634;DHT22;41504;53.162;6.788;2023-05-07T06:42:04;11.20;95.10
55634;DHT22;41504;53.162;6.788;2023-05-07T06:44:30;11.20;95.10
55634;DHT22;41504;53.162;6.788;2023-05-07T06:46:57;11.30;95.10
55634;DHT22;41504;53.162;6.788;2023-05-07T06:49:34;11.30;95.10
55634;DHT22;41504;53.162;6.788;2023-05-07T06:52:00;11.30;95.10
55634;DHT22;41504;53.162;6.788;2023-05-07T06:54:26;11.30;95.10
55634;DHT22;41504;53.162;6.788;2023-05-07T06:56:52;11.30;95.00
55634;DHT22;41504;53.162;6.788;2023-05-07T06:59:18;11.30;95.00
55634;DHT22;41504;53.162;6.788;2023-05-07T07:01:45;11.30;95.00
55634;DHT22;41504;53.162;6.788;2023-05-07T07:04:11;11.30;95.00
55634;DHT22;41504;53.162;6.788;2023-05-07T07:06:37;11.30;94.90
55634;DHT22;41504;53.162;6.788;2023-05-07T07:09:05;11.40;94.90
55634;DHT22;41504;53.162;6.788;2023-05-07T07:11:31;11.40;94.90
55634;DHT22;41504;53.162;6.788;2023-05-07T07:13:57;11.50;94.80
55634;DHT22;41504;53.162;6.788;2023-05-07T07:16:24;11.50;94.80
55634;DHT22;41504;53.162;6.788;2023-05-07T07:18:51;11.90;94.80
55634;DHT22;41504;53.162;6.788;2023-05-07T07:21:17;11.60;94.60
55634;DHT22;41504;53.162;6.788;2023-05-07T07:23:43;11.70;94.60
55634;DHT22;41504;53.162;6.788;2023-05-07T07:26:10;11.60;94.80
55634;DHT22;41504;53.162;6.788;2023-05-07T07:28:45;11.70;94.50
55634;DHT22;41504;53.162;6.788;2023-05-07T07:31:14;11.70;94.50
55634;DHT22;41504;53.162;6.788;2023-05-07T07:33:40;11.60;94.40
55634;DHT22;41504;53.162;6.788;2023-05-07T07:36:14;11.60;94.50
55634;DHT22;41504;53.162;6.788;2023-05-07T07:38:45;11.70;94.40
55634;DHT22;41504;53.162;6.788;2023-05-07T07:41:14;11.70;94.40
55634;DHT22;41504;53.162;6.788;2023-05-07T07:43:40;11.60;94.30
55634;DHT22;41504;53.162;6.788;2023-05-07T07:46:05;11.70;94.40
55634;DHT22;41504;53.162;6.788;2023-05-07T07:48:31;11.70;94.40
55634;DHT22;41504;53.162;6.788;2023-05-07T07:50:57;11.70;94.30
55634;DHT22;41504;53.162;6.788;2023-05-07T07:53:49;11.80;94.20
55634;DHT22;41504;53.162;6.788;2023-05-07T07:56:18;11.70;94.20
55634;DHT22;41504;53.162;6.788;2023-05-07T07:58:58;11.70;94.20
55634;DHT22;41504;53.162;6.788;2023-05-07T08:01:24;11.70;94.10
55634;DHT22;41504;53.162;6.788;2023-05-07T08:03:50;11.70;94.20
55634;DHT22;41504;53.162;6.788;2023-05-07T08:06:16;12.40;94.40
55634;DHT22;41504;53.162;6.788;2023-05-07T08:08:47;11.80;94.20
55634;DHT22;41504;53.162;6.788;2023-05-07T08:11:14;11.90;94.30
55634;DHT22;41504;53.162;6.788;2023-05-07T08:13:40;12.00;94.20
55634;DHT22;41504;53.162;6.788;2023-05-07T08:16:06;12.10;94.00
55634;DHT22;41504;53.162;6.788;2023-05-07T08:18:35;12.10;93.80
55634;DHT22;41504;53.162;6.788;2023-05-07T08:21:04;12.20;93.80
55634;DHT22;41504;53.162;6.788;2023-05-07T08:23:30;12.30;93.70
55634;DHT22;41504;53.162;6.788;2023-05-07T08:26:00;12.30;93.70
55634;DHT22;41504;53.162;6.788;2023-05-07T08:28:28;12.30;93.70
55634;DHT22;41504;53.162;6.788;2023-05-07T08:30:55;12.40;93.70
55634;DHT22;41504;53.162;6.788;2023-05-07T08:33:22;12.50;93.60
55634;DHT22;41504;53.162;6.788;2023-05-07T08:35:51;12.50;93.50
55634;DHT22;41504;53.162;6.788;2023-05-07T08:38:19;12.70;93.40
55634;DHT22;41504;53.162;6.788;2023-05-07T08:40:45;12.80;93.30
55634;DHT22;41504;53.162;6.788;2023-05-07T08:43:18;12.80;93.30
55634;DHT22;41504;53.162;6.788;2023-05-07T08:45:45;12.90;93.10
55634;DHT22;41504;53.162;6.788;2023-05-07T08:48:16;12.90;93.10
55634;DHT22;41504;53.162;6.788;2023-05-07T08:50:42;12.90;92.90
55634;DHT22;41504;53.162;6.788;2023-05-07T08:53:08;12.90;93.00
55634;DHT22;41504;53.162;6.788;2023-05-07T08:55:34;12.90;93.00
55634;DHT22;41504;53.162;6.788;2023-05-07T08:58:01;12.90;92.80
55634;DHT22;41504;53.162;6.788;2023-05-07T09:00:27;12.90;92.90
55634;DHT22;41504;53.162;6.788;2023-05-07T09:02:53;12.80;92.90
55634;DHT22;41504;53.162;6.788;2023-05-07T09:05:21;13.00;92.90
55634;DHT22;41504;53.162;6.788;2023-05-07T09:07:50;13.10;92.80
55634;DHT22;41504;53.162;6.788;2023-05-07T09:10:16;13.20;92.60
55634;DHT22;41504;53.162;6.788;2023-05-07T09:12:47;13.20;92.70
55634;DHT22;41504;53.162;6.788;2023-05-07T09:15:20;13.20;92.60
55634;DHT22;41504;53.162;6.788;2023-05-07T09:17:46;13.30;92.50
55634;DHT22;41504;53.162;6.788;2023-05-07T09:20:16;13.30;92.50
55634;DHT22;41504;53.162;6.788;2023-05-07T09:22:45;13.30;92.20
55634;DHT22;41504;53.162;6.788;2023-05-07T09:25:13;13.30;92.20
55634;DHT22;41504;53.162;6.788;2023-05-07T09:27:42;13.40;92.10
55634;DHT22;41504;53.162;6.788;2023-05-07T09:30:09;13.40;92.10
55634;DHT22;41504;53.162;6.788;2023-05-07T09:32:36;13.40;92.10
55634;DHT22;41504;53.162;6.788;2023-05-07T09:35:03;13.40;92.10
55634;DHT22;41504;53.162;6.788;2023-05-07T09:37:31;13.50;92.10
55634;DHT22;41504;53.162;6.788;2023-05-07T09:39:58;13.60;92.00
55634;DHT22;41504;53.162;6.788;2023-05-07T09:42:24;13.60;91.90
55634;DHT22;41504;53.162;6.788;2023-05-07T09:44:53;13.70;91.90
55634;DHT22;41504;53.162;6.788;2023-05-07T09:47:23;13.80;91.90
55634;DHT22;41504;53.162;6.788;2023-05-07T09:50:03;13.90;91.90
55634;DHT22;41504;53.162;6.788;2023-05-07T09:52:31;13.90;91.70
55634;DHT22;41504;53.162;6.788;2023-05-07T09:55:01;14.00;91.60
55634;DHT22;41504;53.162;6.788;2023-05-07T09:57:31;14.00;91.60
55634;DHT22;41504;53.162;6.788;2023-05-07T10:00:02;14.00;91.60
55634;DHT22;41504;53.162;6.788;2023-05-07T10:02:30;13.90;91.50
55634;DHT22;41504;53.162;6.788;2023-05-07T10:04:57;14.10;91.30
55634;DHT22;41504;53.162;6.788;2023-05-07T10:07:35;14.20;91.30
55634;DHT22;41504;53.162;6.788;2023-05-07T10:10:01;14.30;91.20
55634;DHT22;41504;53.162;6.788;2023-05-07T10:12:28;14.40;91.10
55634;DHT22;41504;53.162;6.788;2023-05-07T10:14:59;14.50;91.10
55634;DHT22;41504;53.162;6.788;2023-05-07T10:17:39;14.50;90.80
55634;DHT22;41504;53.162;6.788;2023-05-07T10:20:06;14.60;90.80
55634;DHT22;41504;53.162;6.788;2023-05-07T10:22:44;14.60;90.80
55634;DHT22;41504;53.162;6.788;2023-05-07T10:25:28;14.60;90.70
55634;DHT22;41504;53.162;6.788;2023-05-07T10:28:10;14.70;90.70
55634;DHT22;41504;53.162;6.788;2023-05-07T10:33:28;14.80;90.40
55634;DHT22;41504;53.162;6.788;2023-05-07T10:36:02;14.90;90.40
55634;DHT22;41504;53.162;6.788;2023-05-07T10:38:30;14.90;90.30
55634;DHT22;41504;53.162;6.788;2023-05-07T10:40:56;15.00;90.20
55634;DHT22;41504;53.162;6.788;2023-05-07T10:43:24;15.00;90.20
55634;DHT22;41504;53.162;6.788;2023-05-07T10:46:25;15.00;90.10
55634;DHT22;41504;53.162;6.788;2023-05-07T10:49:15;15.00;90.00
55634;DHT22;41504;53.162;6.788;2023-05-07T10:51:41;15.00;90.10
55634;DHT22;41504;53.162;6.788;2023-05-07T10:56:37;15.10;90.00
55634;DHT22;41504;53.162;6.788;2023-05-07T11:02:03;15.10;89.80
55634;DHT22;41504;53.162;6.788;2023-05-07T11:04:29;15.30;90.00
55634;DHT22;41504;53.162;6.788;2023-05-07T11:09:54;15.40;89.10
55634;DHT22;41504;53.162;6.788;2023-05-07T11:15:13;15.70;88.30
55634;DHT22;41504;53.162;6.788;2023-05-07T11:17:55;15.80;88.10
55634;DHT22;41504;53.162;6.788;2023-05-07T11:20:55;15.80;88.20
55634;DHT22;41504;53.162;6.788;2023-05-07T11:26:07;16.00;88.10
55634;DHT22;41504;53.162;6.788;2023-05-07T11:28:43;15.90;88.00
55634;DHT22;41504;53.162;6.788;2023-05-07T11:31:10;15.80;87.70
55634;DHT22;41504;53.162;6.788;2023-05-07T11:33:39;15.90;87.40
55634;DHT22;41504;53.162;6.788;2023-05-07T11:36:11;15.90;87.70
55634;DHT22;41504;53.162;6.788;2023-05-07T11:38:38;16.00;87.60
55634;DHT22;41504;53.162;6.788;2023-05-07T11:41:04;16.10;87.30
55634;DHT22;41504;53.162;6.788;2023-05-07T11:43:32;16.20;87.20
55634;DHT22;41504;53.162;6.788;2023-05-07T11:46:11;16.20;87.30
55634;DHT22;41504;53.162;6.788;2023-05-07T11:48:38;16.40;86.90
55634;DHT22;41504;53.162;6.788;2023-05-07T11:51:06;16.40;86.40
55634;DHT22;41504;53.162;6.788;2023-05-07T11:53:38;16.50;86.00
55634;DHT22;41504;53.162;6.788;2023-05-07T11:56:09;16.50;85.90
55634;DHT22;41504;53.162;6.788;2023-05-07T11:58:36;16.70;86.00
55634;DHT22;41504;53.162;6.788;2023-05-07T12:01:03;16.80;85.90
55634;DHT22;41504;53.162;6.788;2023-05-07T12:03:32;16.90;85.30
55634;DHT22;41504;53.162;6.788;2023-05-07T12:05:59;16.90;85.00
55634;DHT22;41504;53.162;6.788;2023-05-07T12:08:25;17.00;84.90
55634;DHT22;41504;53.162;6.788;2023-05-07T12:10:51;17.10;84.80
55634;DHT22;41504;53.162;6.788;2023-05-07T12:13:25;17.30;84.00
55634;DHT22;41504;53.162;6.788;2023-05-07T12:15:58;17.30;82.90
55634;DHT22;41504;53.162;6.788;2023-05-07T12:18:24;17.50;83.00
55634;DHT22;41504;53.162;6.788;2023-05-07T12:20:51;17.50;83.10
55634;DHT22;41504;53.162;6.788;2023-05-07T12:23:17;17.70;83.10
55634;DHT22;41504;53.162;6.788;2023-05-07T12:25:46;17.70;83.00
55634;DHT22;41504;53.162;6.788;2023-05-07T12:28:14;17.80;83.20
55634;DHT22;41504;53.162;6.788;2023-05-07T12:30:47;18.00;82.40
55634;DHT22;41504;53.162;6.788;2023-05-07T12:33:35;18.10;81.60
55634;DHT22;41504;53.162;6.788;2023-05-07T12:36:06;18.30;81.30
55634;DHT22;41504;53.162;6.788;2023-05-07T12:38:35;18.50;81.10
55634;DHT22;41504;53.162;6.788;2023-05-07T12:41:06;18.50;80.50
55634;DHT22;41504;53.162;6.788;2023-05-07T12:43:33;18.50;80.60
55634;DHT22;41504;53.162;6.788;2023-05-07T12:46:04;18.60;80.80
55634;DHT22;41504;53.162;6.788;2023-05-07T12:48:35;18.60;80.40
55634;DHT22;41504;53.162;6.788;2023-05-07T12:51:02;18.80;80.10
55634;DHT22;41504;53.162;6.788;2023-05-07T12:53:42;18.80;80.10
55634;DHT22;41504;53.162;6.788;2023-05-07T12:56:17;18.90;79.70
55634;DHT22;41504;53.162;6.788;2023-05-07T12:58:48;18.90;80.00
55634;DHT22;41504;53.162;6.788;2023-05-07T13:01:15;18.80;79.90
55634;DHT22;41504;53.162;6.788;2023-05-07T13:03:50;18.90;80.10
55634;DHT22;41504;53.162;6.788;2023-05-07T13:06:22;18.90;79.90
55634;DHT22;41504;53.162;6.788;2023-05-07T13:08:48;19.00;79.30
55634;DHT22;41504;53.162;6.788;2023-05-07T13:11:14;19.00;79.00
55634;DHT22;41504;53.162;6.788;2023-05-07T13:13:43;19.00;78.70
55634;DHT22;41504;53.162;6.788;2023-05-07T13:16:10;19.00;78.60
55634;DHT22;41504;53.162;6.788;2023-05-07T13:18:40;19.00;78.80
55634;DHT22;41504;53.162;6.788;2023-05-07T13:21:06;19.00;78.30
55634;DHT22;41504;53.162;6.788;2023-05-07T13:23:33;19.10;77.70
55634;DHT22;41504;53.162;6.788;2023-05-07T13:25:59;19.20;77.80
55634;DHT22;41504;53.162;6.788;2023-05-07T13:28:28;19.30;78.10
55634;DHT22;41504;53.162;6.788;2023-05-07T13:30:54;19.30;77.70
55634;DHT22;41504;53.162;6.788;2023-05-07T13:33:20;19.30;78.10
55634;DHT22;41504;53.162;6.788;2023-05-07T13:35:46;19.40;77.50
55634;DHT22;41504;53.162;6.788;2023-05-07T13:38:12;19.50;77.40
55634;DHT22;41504;53.162;6.788;2023-05-07T13:40:41;19.70;77.50
55634;DHT22;41504;53.162;6.788;2023-05-07T13:43:10;19.80;77.00
55634;DHT22;41504;53.162;6.788;2023-05-07T13:45:40;19.90;76.10
55634;DHT22;41504;53.162;6.788;2023-05-07T13:48:05;19.90;76.00
55634;DHT22;41504;53.162;6.788;2023-05-07T13:50:31;20.00;75.80
55634;DHT22;41504;53.162;6.788;2023-05-07T13:52:57;20.00;75.10
55634;DHT22;41504;53.162;6.788;2023-05-07T13:55:28;20.00;75.40
55634;DHT22;41504;53.162;6.788;2023-05-07T13:57:57;20.20;74.30
55634;DHT22;41504;53.162;6.788;2023-05-07T14:00:33;20.10;74.60
55634;DHT22;41504;53.162;6.788;2023-05-07T14:03:02;20.20;75.00
55634;DHT22;41504;53.162;6.788;2023-05-07T14:05:29;20.30;74.60
55634;DHT22;41504;53.162;6.788;2023-05-07T14:07:59;20.40;73.90
55634;DHT22;41504;53.162;6.788;2023-05-07T14:10:30;20.30;73.60
55634;DHT22;41504;53.162;6.788;2023-05-07T14:12:57;20.30;74.20
55634;DHT22;41504;53.162;6.788;2023-05-07T14:15:30;20.30;74.40
55634;DHT22;41504;53.162;6.788;2023-05-07T14:17:58;20.30;74.10
55634;DHT22;41504;53.162;6.788;2023-05-07T14:20:25;20.30;74.40
55634;DHT22;41504;53.162;6.788;2023-05-07T14:22:51;20.40;74.40
55634;DHT22;41504;53.162;6.788;2023-05-07T14:25:20;20.60;73.80
55634;DHT22;41504;53.162;6.788;2023-05-07T14:27:46;20.60;73.30
55634;DHT22;41504;53.162;6.788;2023-05-07T14:30:12;20.70;72.60
55634;DHT22;41504;53.162;6.788;2023-05-07T14:32:38;20.70;73.00
55634;DHT22;41504;53.162;6.788;2023-05-07T14:35:04;20.80;73.10
55634;DHT22;41504;53.162;6.788;2023-05-07T14:37:30;21.00;73.20
55634;DHT22;41504;53.162;6.788;2023-05-07T14:39:56;21.20;72.80
55634;DHT22;41504;53.162;6.788;2023-05-07T14:42:21;21.40;71.30
55634;DHT22;41504;53.162;6.788;2023-05-07T14:44:47;21.30;70.50
55634;DHT22;41504;53.162;6.788;2023-05-07T14:47:14;21.30;71.20
55634;DHT22;41504;53.162;6.788;2023-05-07T14:49:41;21.30;71.30
55634;DHT22;41504;53.162;6.788;2023-05-07T14:52:07;21.30;70.80
55634;DHT22;41504;53.162;6.788;2023-05-07T14:54:37;21.30;70.70
55634;DHT22;41504;53.162;6.788;2023-05-07T14:57:05;21.20;70.80
55634;DHT22;41504;53.162;6.788;2023-05-07T14:59:30;21.20;71.10
55634;DHT22;41504;53.162;6.788;2023-05-07T15:01:57;21.20;71.10
55634;DHT22;41504;53.162;6.788;2023-05-07T15:04:24;21.20;70.90
55634;DHT22;41504;53.162;6.788;2023-05-07T15:06:50;21.30;70.70
55634;DHT22;41504;53.162;6.788;2023-05-07T15:09:15;21.30;70.30
55634;DHT22;41504;53.162;6.788;2023-05-07T15:11:41;21.40;69.90
55634;DHT22;41504;53.162;6.788;2023-05-07T15:14:07;21.50;69.70
55634;DHT22;41504;53.162;6.788;2023-05-07T15:16:32;21.50;68.70
55634;DHT22;41504;53.162;6.788;2023-05-07T15:18:59;21.40;68.90
55634;DHT22;41504;53.162;6.788;2023-05-07T15:21:25;21.20;69.10
55634;DHT22;41504;53.162;6.788;2023-05-07T15:23:52;21.00;69.80
55634;DHT22;41504;53.162;6.788;2023-05-07T15:26:17;20.90;69.90
55634;DHT22;41504;53.162;6.788;2023-05-07T15:28:43;20.80;70.30
55634;DHT22;41504;53.162;6.788;2023-05-07T15:31:09;20.70;70.50
55634;DHT22;41504;53.162;6.788;2023-05-07T15:33:35;20.60;70.30
55634;DHT22;41504;53.162;6.788;2023-05-07T15:36:01;20.50;70.30
55634;DHT22;41504;53.162;6.788;2023-05-07T15:38:29;20.40;70.90
55634;DHT22;41504;53.162;6.788;2023-05-07T15:40:55;20.40;71.00
55634;DHT22;41504;53.162;6.788;2023-05-07T15:43:21;20.40;71.20
55634;DHT22;41504;53.162;6.788;2023-05-07T15:45:47;20.40;71.20
55634;DHT22;41504;53.162;6.788;2023-05-07T15:48:12;20.40;71.20
55634;DHT22;41504;53.162;6.788;2023-05-07T15:50:38;20.50;70.60
55634;DHT22;41504;53.162;6.788;2023-05-07T15:53:04;20.50;70.60